Time;durP1;ratioP1;P1;durP2;ratioP2;P2;SDS_P1;SDS_P2;PMS_P1;PMS_P2;Temp;Humidity;BMP_temperature;BMP_pressure;BME280_temperature;BME280_humidity;BME280_pressure;Samples;Min_cycle;Max_cycle;Signal;HPM_P1;HPM_P2
2022/10/21 00:01:17;;;;;;;;;3.00;2.00;;;;;13.59;100.00;99834.28;4939929;28;50476;-87
2022/10/21 00:03:42;;;;;;;;;3.25;3.00;;;;;13.93;100.00;99892.09;4936352;28;45405;-86
2022/10/21 00:06:08;;;;;;;;;3.25;2.00;;;;;13.92;100.00;99901.00;4935601;28;45437;-84
2022/10/21 00:08:34;;;;;;;;;2.00;2.00;;;;;13.94;100.00;99887.63;4934980;28;46311;-87
2022/10/21 00:11:03;;;;;;;;;2.00;2.00;;;;;13.94;100.00;99882.31;4936456;28;45406;-86
2022/10/21 00:13:31;;;;;;;;;2.50;2.00;;;;;13.55;100.00;99812.34;4936748;28;45413;-86
2022/10/21 00:15:59;;;;;;;;;3.50;2.00;;;;;13.93;100.00;99870.84;4935486;28;45531;-85
2022/10/21 00:18:25;;;;;;;;;2.00;2.00;;;;;13.42;100.00;99787.25;4934355;28;47170;-85
2022/10/21 00:20:50;;;;;;;;;2.00;0.75;;;;;13.94;100.00;99874.34;4936058;28;45286;-86
2022/10/21 00:23:15;;;;;;;;;2.50;2.00;;;;;13.55;100.00;99804.38;4936375;28;45484;-85
2022/10/21 00:25:41;;;;;;;;;2.00;2.00;;;;;13.45;100.00;99784.47;4930981;28;45648;-85
2022/10/21 00:28:09;;;;;;;;;2.00;2.00;;;;;13.74;100.00;99835.41;4923494;28;46297;-86
2022/10/21 00:30:35;;;;;;;;;1.25;1.25;;;;;13.78;100.00;99827.25;4934737;28;45486;-86
2022/10/21 00:33:00;;;;;;;;;3.00;3.00;;;;;13.85;100.00;99844.63;4934853;28;45374;-86
2022/10/21 00:35:25;;;;;;;;;4.75;2.25;;;;;13.74;100.00;99830.09;4933706;28;45592;-86
2022/10/21 00:37:51;;;;;;;;;2.00;2.00;;;;;13.47;100.00;99783.47;4935825;28;45452;-86
2022/10/21 00:40:16;;;;;;;;;4.50;3.25;;;;;13.15;100.00;99747.72;4936220;28;45362;-87
2022/10/21 00:42:41;;;;;;;;;2.00;2.00;;;;;13.41;100.00;99788.22;4934255;28;45375;-86
2022/10/21 00:45:07;;;;;;;;;4.25;3.00;;;;;13.82;100.00;99857.19;4935754;28;45411;-85
2022/10/21 00:47:43;;;;;;;;;2.00;2.00;;;;;13.10;100.00;99736.44;4934445;28;46928;-85
2022/10/21 00:50:21;;;;;;;;;2.00;2.00;;;;;13.71;100.00;99824.94;4934004;28;45517;-86
2022/10/21 00:52:47;;;;;;;;;4.25;3.50;;;;;13.36;100.00;99780.47;4935605;28;45371;-86
2022/10/21 00:55:12;;;;;;;;;3.50;2.50;;;;;13.46;100.00;99783.56;4934370;28;45348;-86
2022/10/21 00:57:38;;;;;;;;;2.00;2.00;;;;;13.67;100.00;99819.75;4935460;28;46362;-86
2022/10/21 01:00:05;;;;;;;;;2.75;2.75;;;;;13.78;100.00;99829.03;4935700;28;45309;-86
2022/10/21 01:02:30;;;;;;;;;5.00;3.00;;;;;13.66;100.00;99809.22;4952811;28;45413;-87
2022/10/21 01:05:00;;;;;;;;;4.25;2.75;;;;;13.67;100.00;99803.81;4965957;28;45450;-87
2022/10/21 01:07:26;;;;;;;;;1.00;1.00;;;;;13.76;100.00;99815.84;4939603;28;46081;-86
2022/10/21 01:09:51;;;;;;;;;3.00;3.00;;;;;13.09;100.00;99697.59;4938647;28;45303;-87
2022/10/21 01:12:29;;;;;;;;;3.75;2.00;;;;;13.79;100.00;99788.28;4939099;28;45490;-86
2022/10/21 01:15:03;;;;;;;;;2.00;2.00;;;;;13.40;100.00;99730.75;4938273;28;45429;-86
2022/10/21 01:17:35;;;;;;;;;2.75;2.00;;;;;13.57;100.00;99746.75;4937445;28;46718;-86
2022/10/21 01:20:22;;;;;;;;;4.50;3.75;;;;;13.72;100.00;99760.28;4936086;28;45519;-87
2022/10/21 01:23:06;;;;;;;;;2.75;2.75;;;;;13.87;100.00;99775.50;4938277;28;45378;-86
2022/10/21 01:26:28;;;;;;;;;3.25;2.00;;;;;13.92;100.00;99772.63;4936891;28;45612;-86
2022/10/21 01:29:31;;;;;;;;;2.50;2.50;;;;;13.95;100.00;99778.69;4900360;29;46544;-86
2022/10/21 01:31:59;;;;;;;;;2.25;2.25;;;;;13.95;100.00;99791.97;4881656;29;45454;-86
2022/10/21 01:34:42;;;;;;;;;1.50;1.00;;;;;13.87;100.00;99770.19;4881267;29;45381;-86
2022/10/21 01:37:11;;;;;;;;;4.00;2.25;;;;;13.56;100.00;99729.13;4882303;29;45683;-86
2022/10/21 01:40:07;;;;;;;;;4.00;4.00;;;;;13.58;100.00;99729.91;4897722;29;45696;-86
2022/10/21 01:42:51;;;;;;;;;2.75;2.00;;;;;13.83;100.00;99776.56;4881795;29;45537;-86
2022/10/21 01:45:29;;;;;;;;;3.00;3.00;;;;;13.81;100.00;99754.53;4897375;29;45688;-86
2022/10/21 01:48:08;;;;;;;;;3.00;2.75;;;;;13.68;100.00;99733.88;4895293;29;45579;-87
2022/10/21 01:50:40;;;;;;;;;3.00;3.00;;;;;14.04;100.00;99810.13;4875025;29;45660;-86
2022/10/21 01:53:09;;;;;;;;;3.25;3.00;;;;;13.98;100.00;99810.41;4881735;29;45489;-86
2022/10/21 01:55:36;;;;;;;;;2.75;2.00;;;;;13.71;100.00;99775.34;4875541;29;45372;-86
2022/10/21 01:58:11;;;;;;;;;4.00;4.00;;;;;13.53;100.00;99770.84;4899237;29;45745;-86
2022/10/21 02:00:39;;;;;;;;;6.00;3.75;;;;;13.71;100.00;99811.66;4935562;28;46400;-86
2022/10/21 02:03:10;;;;;;;;;5.50;4.00;;;;;14.07;100.00;99875.53;4939454;28;45413;-86
2022/10/21 02:05:35;;;;;;;;;3.00;2.00;;;;;14.10;100.00;99909.09;4937522;28;45447;-85
2022/10/21 02:08:01;;;;;;;;;5.75;5.00;;;;;13.77;100.00;99837.94;4936525;28;45596;-85
2022/10/21 02:10:32;;;;;;;;;3.00;3.00;;;;;14.10;100.00;99903.75;4937127;28;48277;-85
2022/10/21 02:13:02;;;;;;;;;3.75;2.75;;;;;13.64;100.00;99833.16;4938125;28;45482;-86
2022/10/21 02:15:31;;;;;;;;;2.00;2.00;;;;;14.16;100.00;99909.66;4935364;28;45311;-85
2022/10/21 02:18:04;;;;;;;;;3.75;2.00;;;;;14.17;100.00;99908.72;4935434;28;45406;-86
2022/10/21 02:20:35;;;;;;;;;4.00;3.00;;;;;13.72;100.00;99800.09;4936787;28;47003;-87
2022/10/21 02:23:02;;;;;;;;;2.75;2.75;;;;;14.23;100.00;99875.72;4937132;28;46131;-87
2022/10/21 02:25:33;;;;;;;;;2.50;2.00;;;;;13.59;100.00;99744.91;4948743;28;45574;-87
2022/10/21 02:27:58;;;;;;;;;2.50;2.50;;;;;13.68;100.00;99747.16;4919780;28;45507;-87
2022/10/21 02:30:24;;;;;;;;;3.50;2.25;;;;;13.64;100.00;99726.97;4936477;28;47892;-87
2022/10/21 02:33:04;;;;;;;;;3.50;3.00;;;;;14.37;100.00;99821.91;4937765;28;45450;-85
2022/10/21 02:36:08;;;;;;;;;4.00;4.00;;;;;14.43;100.00;99799.47;4935133;28;45567;-85
2022/10/21 02:38:43;;;;;;;;;8.25;4.00;;;;;13.95;100.00;99687.47;4931248;28;45596;-85
2022/10/21 02:41:12;;;;;;;;;3.75;2.25;;;;;14.38;100.00;99736.75;4937408;28;46394;-87
2022/10/21 02:43:44;;;;;;;;;4.75;4.75;;;;;14.30;100.00;99727.44;4936216;28;45429;-87
2022/10/21 02:46:10;;;;;;;;;;;;;;;14.46;100.00;99751.47;4926395;28;45588;-87
2022/10/21 02:48:37;;;;;;;;;;;;;;;14.44;100.00;99726.75;4926218;28;45500;-87
2022/10/21 02:51:03;;;;;;;;;;;;;;;14.39;100.00;99725.19;4940448;28;47897;-87
2022/10/21 02:53:29;;;;;;;;;;;;;;;14.39;100.00;99741.16;4940334;28;45409;-86
2022/10/21 02:55:54;;;;;;;;;;;;;;;14.38;100.00;99744.72;4940789;28;45434;-85
2022/10/21 02:58:19;;;;;;;;;;;;;;;14.32;100.00;99741.53;4940195;28;45560;-86
2022/10/21 03:00:44;;;;;;;;;;;;;;;14.30;100.00;99744.25;4942374;28;46637;-86
2022/10/21 03:03:10;;;;;;;;;;;;;;;14.31;100.00;99739.78;4957690;28;45764;-87
2022/10/21 03:05:35;;;;;;;;;;;;;;;14.29;100.00;99734.56;4950038;28;45393;-86
2022/10/21 03:08:00;;;;;;;;;;;;;;;14.29;100.00;99739.88;4938416;28;45566;-86
2022/10/21 03:10:25;;;;;;;;;;;;;;;14.31;100.00;99753.94;4940270;28;45434;-87
2022/10/21 03:12:50;;;;;;;;;;;;;;;14.31;100.00;99753.09;4940874;28;45351;-87
2022/10/21 03:15:16;;;;;;;;;;;;;;;14.29;100.00;99771.75;4938760;28;45438;-86
2022/10/21 03:17:41;;;;;;;;;;;;;;;14.33;100.00;99783.09;4938051;28;45497;-86
2022/10/21 03:20:06;;;;;;;;;;;;;;;14.31;100.00;99795.59;4937984;28;45347;-86
2022/10/21 03:22:32;;;;;;;;;;;;;;;14.37;100.00;99813.91;4939839;28;45335;-87
2022/10/21 03:24:57;;;;;;;;;;;;;;;14.33;100.00;99821.19;4938567;28;45307;-87
2022/10/21 03:27:22;;;;;;;;;;;;;;;14.38;100.00;99816.50;4937362;28;45536;-86
2022/10/21 03:29:48;;;;;;;;;;;;;;;14.39;100.00;99815.56;4938383;28;46244;-87
2022/10/21 03:32:13;;;;;;;;;4.00;2.75;;;;;14.35;100.00;99811.34;4933431;28;45737;-87
2022/10/21 03:34:38;;;;;;;;;5.00;5.00;;;;;13.95;100.00;99736.19;4933161;28;45689;-87
2022/10/21 03:37:03;;;;;;;;;;;;;;;14.35;100.00;99787.41;4936436;28;45277;-87
2022/10/21 03:39:29;;;;;;;;;;;;;;;14.43;100.00;99778.22;4937362;28;45930;-87
2022/10/21 03:41:54;;;;;;;;;3.25;3.00;;;;;14.25;100.00;99756.88;4930882;28;45852;-85
2022/10/21 03:44:19;;;;;;;;;0.00;0.00;;;;;14.30;100.00;99773.50;4933539;28;47698;-85
2022/10/21 03:46:44;;;;;;;;;;;;;;;14.43;100.00;99791.50;4934937;28;45453;-85
2022/10/21 03:49:10;;;;;;;;;;;;;;;14.47;100.00;99788.63;4938228;28;45504;-85
2022/10/21 03:51:35;;;;;;;;;;;;;;;14.48;100.00;99789.47;4939572;28;45462;-87
2022/10/21 03:54:00;;;;;;;;;;;;;;;14.46;100.00;99804.66;4938706;28;45403;-85
2022/10/21 03:56:25;;;;;;;;;;;;;;;14.43;100.00;99800.34;4938968;28;45671;-87
2022/10/21 03:58:50;;;;;;;;;;;;;;;14.43;100.00;99787.03;4938461;28;45429;-87
2022/10/21 04:01:16;;;;;;;;;;;;;;;14.43;100.00;99794.16;4944136;28;45355;-87
2022/10/21 04:03:41;;;;;;;;;;;;;;;14.43;100.00;99804.81;4956570;28;45470;-85
2022/10/21 04:06:06;;;;;;;;;;;;;;;14.38;100.00;99800.56;4949313;28;45373;-85
2022/10/21 04:08:31;;;;;;;;;;;;;;;14.39;100.00;99802.28;4938469;28;45496;-85
2022/10/21 04:10:57;;;;;;;;;;;;;;;14.40;100.00;99801.34;4937295;28;45427;-85
2022/10/21 04:13:22;;;;;;;;;;;;;;;14.38;100.00;99807.69;4937829;28;45488;-85
2022/10/21 04:15:48;;;;;;;;;;;;;;;14.39;100.00;99807.59;4938283;28;45577;-85
2022/10/21 04:18:13;;;;;;;;;;;;;;;14.38;100.00;99805.03;4938740;28;46269;-87
2022/10/21 04:20:38;;;;;;;;;;;;;;;14.35;100.00;99808.69;4936678;28;45455;-87
2022/10/21 04:23:03;;;;;;;;;;;;;;;14.34;100.00;99806.94;4939077;28;45457;-87
2022/10/21 04:25:28;;;;;;;;;;;;;;;14.31;100.00;99801.78;4937620;28;45380;-87
2022/10/21 04:27:54;;;;;;;;;;;;;;;14.32;100.00;99792.03;4947060;28;45371;-86
2022/10/21 04:30:20;;;;;;;;;;;;;;;14.34;100.00;99806.94;4938801;28;45393;-86
2022/10/21 04:32:46;;;;;;;;;;;;;;;14.37;100.00;99806.78;4938708;28;45346;-87
2022/10/21 04:35:11;;;;;;;;;;;;;;;14.38;100.00;99803.22;4939677;28;45315;-85
2022/10/21 04:37:38;;;;;;;;;;;;;;;14.40;100.00;99789.84;4937002;28;45687;-85
2022/10/21 04:40:04;;;;;;;;;;;;;;;14.45;100.00;99786.97;4937931;28;45335;-85
2022/10/21 04:42:29;;;;;;;;;;;;;;;14.46;100.00;99800.19;4938090;28;45458;-84
2022/10/21 04:44:55;;;;;;;;;;;;;;;14.47;100.00;99801.91;4938479;28;45577;-84
2022/10/21 04:47:20;;;;;;;;;;;;;;;14.48;100.00;99808.94;4936895;28;46418;-85
2022/10/21 04:49:45;;;;;;;;;;;;;;;14.51;100.00;99807.94;4934815;28;45624;-86
2022/10/21 04:52:10;;;;;;;;;;;;;;;14.52;100.00;99807.84;4934895;28;45518;-86
2022/10/21 04:54:35;;;;;;;;;;;;;;;14.54;100.00;99797.16;4937985;28;45465;-85
2022/10/21 04:57:01;;;;;;;;;;;;;;;14.55;100.00;99801.53;4937391;28;47829;-85
2022/10/21 04:59:26;;;;;;;;;;;;;;;14.52;100.00;99793.72;4936791;28;45440;-85
2022/10/21 05:01:51;;;;;;;;;;;;;;;14.50;100.00;99811.53;4951862;28;45436;-85
2022/10/21 05:04:16;;;;;;;;;;;;;;;14.43;100.00;99803.00;4938253;28;45396;-85
2022/10/21 05:06:42;;;;;;;;;;;;;;;14.49;100.00;99801.84;4936627;28;47016;-84
2022/10/21 05:09:08;;;;;;;;;;;;;;;14.52;100.00;99793.72;4934385;28;45508;-84
2022/10/21 05:11:34;;;;;;;;;;;;;;;14.50;100.00;99796.44;4937029;28;45380;-85
2022/10/21 05:13:59;;;;;;;;;;;;;;;14.52;100.00;99799.03;4937804;28;45637;-85
2022/10/21 05:16:24;;;;;;;;;;;;;;;14.52;100.00;99799.88;4938860;28;46652;-85
2022/10/21 05:18:49;;;;;;;;;;;;;;;14.53;100.00;99803.41;4935185;28;45565;-84
2022/10/21 05:21:14;;;;;;;;;;;;;;;14.55;100.00;99813.03;4938302;28;45362;-86
2022/10/21 05:23:40;;;;;;;;;;;;;;;14.54;100.00;99826.41;4936805;28;45533;-86
2022/10/21 05:26:05;;;;;;;;;;;;;;;14.55;100.00;99820.16;4936237;28;46837;-86
2022/10/21 05:28:30;;;;;;;;;;;;;;;14.55;100.00;99817.50;4937741;28;45359;-86
2022/10/21 05:30:55;;;;;;;;;;;;;;;14.58;100.00;99822.66;4936357;28;45382;-86
2022/10/21 05:33:21;;;;;;;;;;;;;;;14.54;100.00;99819.28;4937706;28;45535;-86
2022/10/21 05:35:53;;;;;;;;;;;;;;;14.54;100.00;99826.41;4936003;28;46164;-87
2022/10/21 05:38:19;;;;;;;;;;;;;;;14.57;100.00;99813.84;4937989;28;45493;-85
2022/10/21 05:40:44;;;;;;;;;;;;;;;14.53;100.00;99801.63;4937206;28;45466;-88
2022/10/21 05:43:09;;;;;;;;;;;;;;;14.53;100.00;99806.06;4937689;28;45546;-85
2022/10/21 05:45:34;;;;;;;;;;;;;;;14.53;100.00;99809.59;4935922;28;47857;-84
2022/10/21 05:47:59;;;;;;;;;;;;;;;14.53;100.00;99808.72;4939991;28;45351;-83
2022/10/21 05:50:25;;;;;;;;;5.75;5.75;;;;;14.29;100.00;99782.38;4933858;28;45576;-86
2022/10/21 05:52:50;;;;;;;;;6.50;5.50;;;;;14.43;100.00;99800.34;4934250;28;45337;-85
2022/10/21 05:55:16;;;;;;;;;6.25;6.25;;;;;14.27;100.00;99778.97;4934203;28;45361;-85
2022/10/21 05:57:41;;;;;;;;;7.75;6.50;;;;;14.45;100.00;99800.25;4935936;28;45898;-85
2022/10/21 06:00:07;;;;;;;;;4.25;4.00;;;;;14.36;100.00;99778.50;4932866;28;45409;-87
2022/10/21 06:02:33;;;;;;;;;7.00;7.00;;;;;14.43;100.00;99794.16;4935212;28;45810;-84
2022/10/21 06:04:58;;;;;;;;;6.50;6.50;;;;;14.11;100.00;99756.69;4933870;28;45635;-87
2022/10/21 06:07:23;;;;;;;;;7.25;6.00;;;;;14.43;100.00;99805.66;4929768;28;45576;-85
2022/10/21 06:09:49;;;;;;;;;6.25;6.25;;;;;14.22;100.00;99786.28;4932661;28;45525;-84
2022/10/21 06:12:34;;;;;;;;;10.50;6.75;;;;;14.51;100.00;99827.41;4932015;28;45651;-88
2022/10/21 06:14:59;;;;;;;;;3.00;3.00;;;;;14.85;100.00;99892.31;4932356;28;45444;-89
2022/10/21 06:17:25;;;;;;;;;9.00;7.00;;;;;14.48;100.00;99851.47;4935306;28;45873;-90
2022/10/21 06:19:50;;;;;;;;;7.50;7.50;;;;;14.33;100.00;99804.34;4938360;28;45445;-88
2022/10/21 06:22:15;;;;;;;;;6.00;6.00;;;;;14.92;100.00;99906.16;4936663;28;45956;-84
2022/10/21 06:24:44;;;;;;;;;8.00;8.00;;;;;14.48;100.00;99845.31;4935574;28;46443;-88
2022/10/21 06:27:10;;;;;;;;;8.25;7.75;;;;;14.49;100.00;99839.06;4936939;28;45621;-85
2022/10/21 06:29:35;;;;;;;;;9.00;6.75;;;;;14.72;100.00;99862.75;4934351;28;45358;-85
2022/10/21 06:32:01;;;;;;;;;6.00;4.75;;;;;14.70;100.00;99877.09;4935953;28;45426;-85
2022/10/21 06:34:26;;;;;;;;;6.00;6.00;;;;;14.57;100.00;99880.31;4935105;28;46260;-85
2022/10/21 06:36:51;;;;;;;;;9.00;8.00;;;;;14.56;100.00;99878.59;4933677;28;45447;-85
2022/10/21 06:39:17;;;;;;;;;7.25;5.75;;;;;14.83;100.00;99925.22;4934477;28;45263;-84
2022/10/21 06:41:42;;;;;;;;;8.50;6.75;;;;;14.55;100.00;99881.31;4935614;28;45668;-89
2022/10/21 06:44:08;;;;;;;;;11.25;6.50;;;;;14.54;100.00;99895.53;4937031;28;47861;-88
2022/10/21 06:46:33;;;;;;;;;7.50;6.50;;;;;14.50;100.00;99893.94;4933801;28;45418;-87
2022/10/21 06:48:58;;;;;;;;;7.00;7.00;;;;;14.40;100.00;99870.44;4928013;28;46008;-84
2022/10/21 06:51:24;;;;;;;;;5.50;5.25;;;;;14.58;100.00;99905.09;4934103;28;45659;-88
2022/10/21 06:53:55;;;;;;;;;9.00;9.00;;;;;14.21;100.00;99843.88;4932978;28;46997;-89
2022/10/21 06:56:27;;;;;;;;;8.75;8.75;;;;;14.65;100.00;99925.19;4948596;28;45396;-89
2022/10/21 06:58:56;;;;;;;;;6.00;6.00;;;;;14.78;100.00;99937.91;4917864;28;45605;-89
2022/10/21 07:01:24;;;;;;;;;7.75;6.75;;;;;14.71;100.00;99929.34;4928498;28;45873;-88
2022/10/21 07:03:49;;;;;;;;;7.00;7.00;;;;;14.71;100.00;99943.50;4934186;28;45617;-88
2022/10/21 07:06:15;;;;;;;;;7.00;7.00;;;;;14.66;100.00;99923.38;4948346;28;45819;-85
2022/10/21 07:08:42;;;;;;;;;8.50;7.00;;;;;14.29;100.00;99856.81;4933619;28;45447;-88
2022/10/21 07:11:21;;;;;;;;;6.25;5.00;;;;;14.33;100.00;99868.16;4930536;28;46017;-89
2022/10/21 07:13:47;;;;;;;;;5.50;5.50;;;;;13.89;100.00;99792.22;4948756;28;45444;-85
2022/10/21 07:16:26;;;;;;;;;6.00;6.00;;;;;14.79;100.00;99950.25;4930582;28;45980;-86
2022/10/21 07:19:00;;;;;;;;;5.25;5.25;;;;;14.17;100.00;99886.63;4932727;28;45428;-86
2022/10/21 07:21:30;;;;;;;;;4.00;4.00;;;;;14.49;100.00;99954.25;4932100;28;45543;-86
2022/10/21 07:24:00;;;;;;;;;7.00;6.00;;;;;14.33;100.00;99919.53;4947206;28;46762;-86
2022/10/21 07:26:28;;;;;;;;;7.25;6.00;;;;;14.69;100.00;99992.38;4951205;28;45530;-85
2022/10/21 07:28:56;;;;;;;;;9.25;6.75;;;;;14.67;100.00;99984.47;4935195;28;45711;-89
2022/10/21 07:31:22;;;;;;;;;5.50;5.00;;;;;14.33;100.00;99897.38;4948876;28;45333;-86
2022/10/21 07:33:47;;;;;;;;;4.75;4.00;;;;;14.53;100.00;99946.97;4933274;28;45426;-90
2022/10/21 07:36:26;;;;;;;;;5.00;5.00;;;;;14.56;100.00;99976.09;4931015;28;45769;-84
2022/10/21 07:38:58;;;;;;;;;4.00;4.00;;;;;14.40;100.00;99968.81;4933231;28;45528;-89
2022/10/21 07:41:29;;;;;;;;;8.50;5.75;;;;;14.34;100.00;99960.25;4932030;28;45345;-86
2022/10/21 07:47:04;;;;;;;;;3.75;3.25;;;;;13.92;100.00;99916.06;4929321;28;45927;-89
2022/10/21 07:49:38;;;;;;;;;4.75;3.75;;;;;13.65;100.00;99858.81;4947366;28;45808;-89
2022/10/21 07:52:03;;;;;;;;;3.00;3.00;;;;;14.10;100.00;99938.31;4944970;28;45668;-85
2022/10/21 08:01:10;;;;;;;;;4.50;3.00;;;;;13.76;100.00;99854.81;4904476;28;45624;-85
2022/10/21 08:03:44;;;;;;;;;3.00;3.00;;;;;14.74;100.00;99996.56;4912081;28;45661;-84
2022/10/21 08:09:53;;;;;;;;;3.00;3.00;;;;;14.12;100.00;99881.50;4812459;29;45390;-84
2022/10/21 08:12:19;;;;;;;;;4.00;4.00;;;;;14.63;100.00;99968.75;4793420;29;45866;-86
2022/10/21 08:14:44;;;;;;;;;3.50;3.50;;;;;14.87;100.00;100001.31;4809685;29;45809;-87
2022/10/21 08:17:09;;;;;;;;;5.50;5.00;;;;;14.38;100.00;99901.56;4786353;29;47322;-85
2022/10/21 08:19:35;;;;;;;;;4.00;4.00;;;;;15.07;100.00;99945.31;4809786;29;45432;-87
2022/10/21 08:22:09;;;;;;;;;3.00;3.00;;;;;15.72;100.00;99942.13;4810605;29;45513;-87
2022/10/21 08:27:29;;;;;;;;;3.00;2.75;;;;;17.00;100.00;99910.41;4793804;29;46577;-85
2022/10/21 08:30:17;;;;;;;;;4.00;4.00;;;;;17.37;100.00;99902.97;4797939;29;45577;-86
2022/10/21 08:32:52;;;;;;;;;4.00;4.00;;;;;16.76;100.00;99732.06;4780829;29;46099;-87
2022/10/21 08:35:19;;;;;;;;;3.25;3.00;;;;;18.31;100.00;100009.63;4778660;29;45521;-85
2022/10/21 08:37:48;;;;;;;;;3.00;3.00;;;;;17.04;100.00;99854.09;4776489;29;46697;-84
2022/10/21 08:41:06;;;;;;;;;2.75;2.00;;;;;17.28;100.00;99924.84;4785600;29;45980;-84
2022/10/21 08:46:46;;;;;;;;;5.00;5.00;;;;;18.05;100.00;100013.88;4887547;28;46520;-85
2022/10/21 08:49:54;;;;;;;;;5.00;5.00;;;;;17.77;100.00;99959.38;4927823;28;47180;-83
2022/10/21 08:52:25;;;;;;;;;4.75;4.75;;;;;17.40;100.00;99918.81;4929384;28;45570;-85
2022/10/21 08:55:14;;;;;;;;;4.00;4.00;;;;;17.90;100.00;100007.63;4925800;28;45642;-85
2022/10/21 08:57:39;;;;;;;;;4.00;4.00;;;;;17.79;100.00;99992.19;4903419;28;46118;-85
2022/10/21 09:00:16;;;;;;;;;5.25;5.25;;;;;17.21;100.00;99887.81;4925049;28;47848;-84
2022/10/21 09:03:12;;;;;;;;;4.00;3.00;;;;;18.31;100.00;100020.34;4924202;28;45568;-85
2022/10/21 09:06:03;;;;;;;;;4.50;4.50;;;;;18.08;100.00;99949.50;4923050;28;45499;-85
2022/10/21 09:08:59;;;;;;;;;3.00;3.00;;;;;18.99;100.00;100014.34;4944226;28;45839;-85
2022/10/21 09:11:50;;;;;;;;;3.75;3.00;;;;;18.14;100.00;99812.75;4929078;28;46997;-85
2022/10/21 09:14:38;;;;;;;;;3.00;3.00;;;;;19.45;100.00;100005.13;4926488;28;45627;-85
2022/10/21 09:21:08;;;;;;;;;5.25;5.00;;;;;19.60;100.00;100013.09;4925712;28;45800;-84
2022/10/21 09:24:23;;;;;;;;;;;;;;;;;;;;;
2022/10/21 09:27:09;;;;;;;;;5.50;4.75;;;;;19.46;100.00;99913.03;4926787;28;72062;-86
2022/10/21 09:30:26;;;;;;;;;4.75;4.75;;;;;18.89;100.00;99809.72;4931803;28;45575;-86
2022/10/21 09:32:58;;;;;;;;;5.25;4.00;;;;;19.23;99.88;99882.44;4918366;28;45670;-85
2022/10/21 09:35:47;;;;;;;;;6.50;5.00;;;;;19.86;100.00;100004.19;4932714;28;45649;-85
2022/10/21 09:38:22;;;;;;;;;4.25;4.25;;;;;19.06;100.00;99923.75;4925697;28;45705;-84
2022/10/21 09:40:57;;;;;;;;;3.25;3.25;;;;;19.31;97.68;100005.16;4935589;28;45497;-84
2022/10/21 09:43:25;;;;;;;;;5.00;5.00;;;;;18.51;97.21;99866.59;4932441;28;45672;-85
2022/10/21 09:45:55;;;;;;;;;3.75;3.75;;;;;18.51;94.58;99912.09;4933250;28;46404;-85
2022/10/21 09:48:52;;;;;;;;;6.00;5.75;;;;;19.13;97.55;100004.53;4934674;28;45433;-85
2022/10/21 09:52:26;;;;;;;;;5.00;5.00;;;;;18.42;100.00;99924.22;4927027;28;45396;-84
2022/10/21 09:54:52;;;;;;;;;7.50;6.50;;;;;18.43;99.18;99925.06;4931183;28;45982;-86
2022/10/21 09:57:44;;;;;;;;;5.75;5.00;;;;;18.61;94.11;99964.06;4932944;28;47310;-84
2022/10/21 10:00:10;;;;;;;;;8.00;5.25;;;;;18.26;96.33;99913.59;4934377;28;45841;-85
2022/10/21 10:02:39;;;;;;;;;7.00;6.75;;;;;18.97;99.95;100021.59;4932677;28;45420;-85
2022/10/21 10:05:39;;;;;;;;;4.25;4.25;;;;;19.02;100.00;100020.44;4934115;28;45382;-85
2022/10/21 10:08:31;;;;;;;;;6.25;5.50;;;;;19.00;97.85;99999.13;4934312;28;46320;-85
2022/10/21 10:11:08;;;;;;;;;5.00;5.00;;;;;19.30;95.33;100028.41;4933249;28;45513;-88
2022/10/21 10:13:53;;;;;;;;;6.00;5.00;;;;;19.19;92.31;100020.19;4934975;28;45975;-85
2022/10/21 10:16:25;;;;;;;;;5.75;5.25;;;;;18.83;91.90;99976.06;4917962;28;45457;-85
2022/10/21 10:19:09;;;;;;;;;6.00;6.00;;;;;18.82;92.92;99959.13;4933324;28;46039;-85
2022/10/21 10:22:03;;;;;;;;;8.25;5.25;;;;;19.02;92.85;99985.63;4929499;28;45456;-85
2022/10/21 10:25:31;;;;;;;;;7.00;6.75;;;;;19.34;95.83;100023.69;4929640;28;45402;-87
2022/10/21 10:28:02;;;;;;;;;9.50;8.00;;;;;19.01;94.89;99984.78;4934707;28;45577;-84
2022/10/21 10:31:02;;;;;;;;;8.00;6.50;;;;;18.98;91.52;99991.19;4929199;28;45469;-86
2022/10/21 10:33:59;;;;;;;;;5.50;5.25;;;;;17.84;94.32;99795.00;4896763;29;45395;-85
2022/10/21 10:36:36;;;;;;;;;7.00;7.00;;;;;19.21;89.82;100018.31;4878148;29;45700;-85
2022/10/21 10:39:25;;;;;;;;;;;;;;;;;;;;;
2022/10/21 10:41:52;;;;;;;;;5.50;4.50;;;;;17.76;90.89;99762.53;4891366;29;73253;-86
2022/10/21 10:44:31;;;;;;;;;6.25;6.25;;;;;18.71;91.65;99926.00;4891956;29;45434;-85
2022/10/21 10:47:42;;;;;;;;;;;;;;;;;;;;;
2022/10/21 10:51:11;;;;;;;;;;;;;;;;;;;;;
2022/10/21 10:54:16;;;;;;;;;7.75;6.00;;;;;18.73;91.94;99924.94;4857997;29;73713;-85
2022/10/21 10:57:06;;;;;;;;;5.00;5.00;;;;;18.53;91.20;99870.03;4887914;29;45773;-85
2022/10/21 10:59:45;;;;;;;;;5.25;5.00;;;;;18.53;89.59;99845.09;4877924;29;45450;-86
2022/10/21 11:02:16;;;;;;;;;6.00;6.00;;;;;19.73;89.28;100014.00;4895073;28;45431;-85
2022/10/21 11:05:17;;;;;;;;;4.00;4.00;;;;;19.87;87.39;100016.66;4894574;29;45586;-86
2022/10/21 11:08:18;;;;;;;;;3.50;3.50;;;;;19.97;87.96;100002.63;4894628;29;45451;-86
2022/10/21 11:10:48;;;;;;;;;3.75;3.75;;;;;19.65;83.82;99950.19;4927320;28;45416;-85
2022/10/21 11:13:19;;;;;;;;;0.75;0.75;;;;;20.01;79.23;99999.63;4934053;28;45426;-85
2022/10/21 11:16:00;;;;;;;;;3.25;3.25;;;;;20.06;82.79;100008.19;4946091;28;48451;-86
2022/10/21 11:18:56;;;;;;;;;6.25;5.00;;;;;20.31;81.57;100003.81;4929839;28;45426;-86
2022/10/21 11:21:43;;;;;;;;;3.50;3.50;;;;;20.49;77.88;100003.50;4931878;28;45569;-86
2022/10/21 11:24:27;;;;;;;;;3.00;3.00;;;;;20.56;78.62;100002.97;4926281;28;45640;-85
2022/10/21 11:26:56;;;;;;;;;2.25;2.25;;;;;20.68;79.81;100006.63;4931348;28;46139;-85
2022/10/21 11:29:37;;;;;;;;;2.25;2.25;;;;;20.86;79.18;100003.59;4931055;28;45424;-86
2022/10/21 11:32:24;;;;;;;;;6.50;4.50;;;;;21.04;81.14;100012.13;4939037;28;45858;-86
2022/10/21 11:35:15;;;;;;;;;1.75;1.75;;;;;20.89;75.49;99952.34;4932912;28;45538;-88
2022/10/21 11:38:02;;;;;;;;;4.75;4.00;;;;;21.52;77.17;100008.69;4932797;28;46352;-86
2022/10/21 11:40:51;;;;;;;;;5.00;4.00;;;;;21.72;75.19;100018.78;4932032;28;46055;-86
2022/10/21 11:43:51;;;;;;;;;4.00;3.00;;;;;21.74;69.51;100019.53;4929494;28;45545;-85
2022/10/21 11:46:42;;;;;;;;;2.00;2.00;;;;;21.62;69.48;99996.25;4929046;28;45468;-86
2022/10/21 11:49:22;;;;;;;;;3.50;3.25;;;;;21.86;67.04;100020.41;4930280;28;47367;-86
2022/10/21 11:52:04;;;;;;;;;2.75;1.75;;;;;21.69;65.53;99967.09;4931721;28;45361;-86
2022/10/21 11:55:04;;;;;;;;;4.50;2.00;;;;;22.25;72.53;100014.81;4931852;28;45532;-86
2022/10/21 11:57:50;;;;;;;;;2.00;2.00;;;;;22.63;68.67;100008.28;4920688;28;45457;-86
2022/10/21 12:00:25;;;;;;;;;3.00;3.00;;;;;22.85;68.58;99938.22;4932758;28;45473;-86
2022/10/21 12:03:05;;;;;;;;;5.00;2.00;;;;;23.93;65.55;99993.19;4962714;28;45512;-87
2022/10/21 12:05:37;;;;;;;;;2.75;2.75;;;;;24.40;69.33;99992.75;4932570;28;45564;-86
2022/10/21 12:08:14;;;;;;;;;2.00;2.00;;;;;24.49;63.23;99962.28;4948264;28;45524;-87
2022/10/21 12:10:50;;;;;;;;;1.00;0.75;;;;;24.61;58.82;99966.63;4930691;28;47032;-86
2022/10/21 12:13:21;;;;;;;;;3.75;2.00;;;;;24.63;61.58;99910.59;4922207;28;45465;-85
2022/10/21 12:15:54;;;;;;;;;1.25;1.00;;;;;25.52;60.50;99988.19;4933348;28;45367;-87
2022/10/21 12:18:22;;;;;;;;;1.00;0.25;;;;;25.43;60.95;99953.00;4932710;28;45599;-86
2022/10/21 12:20:50;;;;;;;;;2.00;2.00;;;;;25.08;56.71;99906.56;4930130;28;46985;-86
2022/10/21 12:23:25;;;;;;;;;2.00;1.50;;;;;25.20;55.14;99950.53;4930360;28;45619;-87
2022/10/21 12:26:19;;;;;;;;;6.00;3.75;;;;;25.25;54.52;99980.72;4932428;28;45449;-87
2022/10/21 12:28:56;;;;;;;;;1.25;1.25;;;;;24.73;56.70;99898.97;4919796;28;45553;-87
2022/10/21 12:31:34;;;;;;;;;3.50;1.25;;;;;25.18;56.24;99976.88;4930599;28;47713;-87
2022/10/21 12:34:01;;;;;;;;;5.00;2.50;;;;;24.60;53.46;99954.09;4932427;28;45652;-86
2022/10/21 12:36:40;;;;;;;;;2.50;2.50;;;;;23.71;55.31;99913.19;4932228;28;45619;-86
2022/10/21 12:39:14;;;;;;;;;2.25;1.00;;;;;23.51;56.12;99968.81;4930412;28;45362;-86
2022/10/21 12:41:43;;;;;;;;;1.50;1.50;;;;;22.59;58.40;99926.00;4927950;28;45401;-86